Time;durP1;ratioP1;P1;durP2;ratioP2;P2;SDS_P1;SDS_P2;PMS_P1;PMS_P2;Temp;Humidity;BMP_temperature;BMP_pressure;BME280_temperature;BME280_humidity;BME280_pressure;Samples;Min_cycle;Max_cycle;Signal;HPM_P1;HPM_P2
2022/10/15 00:01:08;;;;;;;50.35;18.63;;;12.50;99.90;;;;;;4214386;28;20043;-85
2022/10/15 00:03:09;;;;;;;40.67;17.92;;;12.70;99.90;;;;;;4214496;28;20036;-85
2022/10/15 00:05:10;;;;;;;40.80;18.70;;;12.70;99.90;;;;;;4214596;28;20062;-84
2022/10/15 00:07:11;;;;;;;41.67;19.55;;;12.30;99.90;;;;;;4196594;28;20052;-85
2022/10/15 00:09:12;;;;;;;41.97;18.13;;;12.70;99.90;;;;;;4196023;28;20040;-84
2022/10/15 00:11:21;;;;;;;41.15;18.30;;;12.70;99.90;;;;;;4214326;28;20040;-84
2022/10/15 00:13:22;;;;;;;40.50;18.05;;;12.70;99.90;;;;;;4214609;28;20071;-84
2022/10/15 00:15:23;;;;;;;45.30;19.70;;;12.70;99.90;;;;;;4212871;28;20044;-84
2022/10/15 00:17:24;;;;;;;40.38;19.83;;;12.70;99.90;;;;;;4214578;28;20084;-84
2022/10/15 00:19:24;;;;;;;47.60;20.15;;;12.70;99.90;;;;;;4214786;28;20524;-85
2022/10/15 00:21:25;;;;;;;46.80;18.58;;;12.70;99.90;;;;;;4214626;28;20044;-84
2022/10/15 00:23:26;;;;;;;45.20;20.13;;;12.70;99.90;;;;;;4214027;28;20043;-84
2022/10/15 00:25:27;;;;;;;45.75;20.13;;;12.70;99.90;;;;;;4214631;28;20469;-84
2022/10/15 00:27:27;;;;;;;46.65;19.55;;;12.60;99.90;;;;;;4214306;28;20119;-83
2022/10/15 00:29:28;;;;;;;41.63;18.20;;;12.70;99.90;;;;;;4214600;28;20044;-84
2022/10/15 00:31:30;;;;;;;40.05;19.52;;;12.60;99.90;;;;;;4214467;28;20044;-85
2022/10/15 00:33:33;;;;;;;46.10;19.08;;;12.70;99.90;;;;;;4214453;28;20044;-85
2022/10/15 00:35:33;;;;;;;46.38;19.75;;;12.70;99.90;;;;;;4214491;28;20078;-84
2022/10/15 00:37:34;;;;;;;45.65;19.23;;;12.70;99.90;;;;;;4214005;28;20035;-84
2022/10/15 00:39:35;;;;;;;52.08;19.48;;;12.70;99.90;;;;;;4214373;28;20139;-85
2022/10/15 00:41:40;;;;;;;45.15;19.30;;;12.70;99.90;;;;;;4221207;28;20374;-85
2022/10/15 00:43:47;;;;;;;42.67;19.40;;;12.70;99.90;;;;;;4231599;28;20484;-85
2022/10/15 00:45:48;;;;;;;48.03;20.00;;;12.50;99.90;;;;;;4232128;28;20436;-85
2022/10/15 00:47:50;;;;;;;41.83;19.65;;;12.60;99.90;;;;;;4231899;28;20127;-85
2022/10/15 00:50:22;;;;;;;40.50;19.08;;;12.60;99.90;;;;;;4213926;28;20048;-84
2022/10/15 00:52:28;;;;;;;45.00;19.58;;;12.70;99.90;;;;;;4232064;28;20047;-85
2022/10/15 00:54:36;;;;;;;43.20;19.63;;;12.70;99.90;;;;;;4232840;28;20056;-84
2022/10/15 00:56:43;;;;;;;46.35;19.48;;;12.70;99.90;;;;;;4239821;28;20105;-83
2022/10/15 00:58:46;;;;;;;45.20;20.40;;;12.70;99.90;;;;;;4247160;28;20051;-83
2022/10/15 01:00:47;;;;;;;43.80;19.30;;;12.70;99.90;;;;;;4245439;28;20136;-83
2022/10/15 01:02:48;;;;;;;60.67;19.27;;;12.70;99.90;;;;;;4246232;28;20031;-83
2022/10/15 01:04:54;;;;;;;42.25;20.02;;;12.70;99.90;;;;;;4246030;28;20051;-83
2022/10/15 01:06:54;;;;;;;43.13;19.80;;;12.70;99.90;;;;;;4239113;28;20043;-84
2022/10/15 01:08:55;;;;;;;42.70;19.63;;;11.70;99.90;;;;;;4234495;27;20071;-84
2022/10/15 01:11:18;;;;;;;45.42;19.17;;;12.70;99.90;;;;;;4234057;28;20040;-84
2022/10/15 01:13:41;;;;;;;43.42;18.50;;;12.70;99.90;;;;;;4240711;28;20048;-83
2022/10/15 01:16:11;;;;;;;41.83;19.17;;;12.70;99.90;;;;;;4234049;28;20059;-83
2022/10/15 01:18:27;;;;;;;43.00;19.35;;;12.70;99.90;;;;;;4233656;28;20079;-83
2022/10/15 01:20:45;;;;;;;49.88;20.42;;;12.70;99.90;;;;;;4232259;28;20539;-83
2022/10/15 01:23:08;;;;;;;43.40;20.20;;;12.70;99.90;;;;;;4232305;28;20055;-83
2022/10/15 01:25:36;;;;;;;38.80;19.80;;;12.70;99.90;;;;;;4232880;28;20040;-83
2022/10/15 01:27:48;;;;;;;39.00;19.17;;;12.70;99.90;;;;;;4232740;27;20054;-83
2022/10/15 01:30:20;;;;;;;46.25;19.27;;;12.70;99.90;;;;;;4232484;28;20135;-83
2022/10/15 01:32:24;;;;;;;45.08;18.33;;;12.60;99.90;;;;;;4233519;28;20036;-82
2022/10/15 01:34:40;;;;;;;38.65;18.70;;;12.60;99.90;;;;;;4232270;28;20520;-83
2022/10/15 01:36:51;;;;;;;37.72;17.33;;;12.60;99.90;;;;;;4233765;28;20400;-83
2022/10/15 01:38:59;;;;;;;38.42;19.27;;;12.60;99.90;;;;;;4231908;28;20134;-83
2022/10/15 01:41:14;;;;;;;35.85;17.40;;;12.70;99.90;;;;;;4233468;28;20054;-83
2022/10/15 01:43:21;;;;;;;39.30;18.80;;;12.60;99.90;;;;;;4233339;28;20480;-83
2022/10/15 01:45:37;;;;;;;36.72;18.65;;;12.70;99.90;;;;;;4233555;28;20388;-83
2022/10/15 01:47:45;;;;;;;38.22;18.60;;;12.70;99.90;;;;;;4232302;28;20040;-82
2022/10/15 01:49:48;;;;;;;37.13;17.33;;;12.60;99.90;;;;;;4232679;28;20043;-83
2022/10/15 01:51:52;;;;;;;41.10;18.48;;;11.70;99.90;;;;;;4232239;28;20162;-83
2022/10/15 01:53:53;;;;;;;42.70;19.60;;;12.60;99.90;;;;;;4231873;28;20059;-83
2022/10/15 01:55:58;;;;;;;40.85;19.20;;;12.60;99.90;;;;;;4232967;28;20047;-83
2022/10/15 01:58:00;;;;;;;34.88;17.55;;;12.60;99.90;;;;;;4231638;28;20043;-82
2022/10/15 02:00:03;;;;;;;40.95;18.48;;;12.60;99.90;;;;;;4231526;28;20051;-83
2022/10/15 02:02:07;;;;;;;39.38;17.92;;;12.60;99.90;;;;;;4231476;28;20044;-83
2022/10/15 02:04:27;;;;;;;36.03;17.88;;;12.60;99.90;;;;;;4232664;28;20039;-84
2022/10/15 02:06:38;;;;;;;36.45;17.13;;;12.60;99.90;;;;;;4233297;28;20086;-83
2022/10/15 02:08:48;;;;;;;38.28;17.58;;;12.60;99.90;;;;;;4231826;28;20528;-83
2022/10/15 02:11:05;;;;;;;39.80;17.25;;;12.60;99.90;;;;;;4231356;28;20036;-84
2022/10/15 02:13:42;;;;;;;36.72;17.92;;;12.50;99.90;;;;;;4232566;28;20118;-83
2022/10/15 02:15:53;;;;;;;44.13;18.13;;;12.60;99.90;;;;;;4231150;28;20093;-83
2022/10/15 02:18:27;;;;;;;41.58;18.15;;;12.50;99.90;;;;;;4232364;28;20043;-83
2022/10/15 02:20:36;;;;;;;37.80;17.67;;;12.50;99.90;;;;;;4232762;28;20075;-84
2022/10/15 02:22:45;;;;;;;39.90;17.05;;;12.50;99.90;;;;;;4232098;28;20044;-83
2022/10/15 02:24:57;;;;;;;42.22;17.17;;;12.50;99.90;;;;;;4232270;28;20089;-83
2022/10/15 02:27:00;;;;;;;41.22;17.98;;;12.50;99.90;;;;;;4231143;28;20040;-83
2022/10/15 02:29:04;;;;;;;38.25;17.23;;;12.50;99.90;;;;;;4232626;28;20040;-83
2022/10/15 02:31:08;;;;;;;41.95;18.17;;;12.50;99.90;;;;;;4231429;28;20050;-83
2022/10/15 02:33:11;;;;;;;35.90;17.58;;;12.50;99.90;;;;;;4232091;28;20047;-83
2022/10/15 02:35:11;;;;;;;34.42;16.05;;;12.50;99.90;;;;;;4231689;28;20070;-83
2022/10/15 02:37:14;;;;;;;37.88;17.98;;;12.50;99.90;;;;;;4232133;28;20035;-82
2022/10/15 02:39:20;;;;;;;33.58;16.67;;;12.40;99.90;;;;;;4231048;28;20708;-83
2022/10/15 02:41:22;;;;;;;36.70;17.08;;;12.40;99.90;;;;;;4232098;28;20031;-83
2022/10/15 02:43:24;;;;;;;38.25;17.45;;;12.40;99.90;;;;;;4230508;28;20040;-82
2022/10/15 02:45:24;;;;;;;37.40;18.05;;;12.50;99.90;;;;;;4232174;28;20103;-83
2022/10/15 02:47:25;;;;;;;35.97;17.73;;;12.40;99.90;;;;;;4231984;28;20514;-83
2022/10/15 02:49:26;;;;;;;38.80;17.95;;;12.50;99.90;;;;;;4231572;28;20180;-83
2022/10/15 02:51:29;;;;;;;36.70;16.13;;;12.40;99.90;;;;;;4230810;28;20055;-82
2022/10/15 02:53:30;;;;;;;35.97;16.52;;;12.40;99.90;;;;;;4231457;28;20059;-83
2022/10/15 02:55:31;;;;;;;35.20;16.77;;;12.40;99.90;;;;;;4230423;28;20075;-83
2022/10/15 02:57:31;;;;;;;41.47;17.30;;;12.40;99.90;;;;;;4247454;27;20566;-83
2022/10/15 02:59:32;;;;;;;41.90;17.98;;;12.50;99.90;;;;;;4231550;28;20040;-83
2022/10/15 03:01:33;;;;;;;39.30;16.13;;;12.40;99.90;;;;;;4231966;28;20130;-83
2022/10/15 03:03:35;;;;;;;36.33;17.73;;;12.40;99.90;;;;;;4231183;28;20055;-83
2022/10/15 03:05:38;;;;;;;35.15;17.25;;;12.40;99.90;;;;;;4230732;28;20052;-83
2022/10/15 03:07:38;;;;;;;36.42;16.80;;;12.40;99.90;;;;;;4231994;28;20099;-84
2022/10/15 03:09:39;;;;;;;34.55;16.05;;;12.40;99.90;;;;;;4247672;27;20035;-84
2022/10/15 03:11:40;;;;;;;40.30;17.25;;;12.40;99.90;;;;;;4230834;28;20052;-84
2022/10/15 03:13:40;;;;;;;39.55;17.73;;;12.40;99.90;;;;;;4231570;28;20397;-83
2022/10/15 03:15:41;;;;;;;39.25;16.63;;;12.40;99.90;;;;;;4231518;28;20100;-84
2022/10/15 03:17:42;;;;;;;36.95;15.95;;;12.30;99.90;;;;;;4231570;28;20031;-83
2022/10/15 03:19:43;;;;;;;35.03;16.40;;;12.40;99.90;;;;;;4232007;28;20403;-83
2022/10/15 03:21:44;;;;;;;35.95;16.08;;;12.30;99.90;;;;;;4231890;28;20032;-83
2022/10/15 03:23:44;;;;;;;37.35;16.00;;;12.20;99.90;;;;;;4231633;28;20047;-83
2022/10/15 03:25:45;;;;;;;37.08;16.38;;;12.30;99.90;;;;;;4229323;28;20517;-83
2022/10/15 03:27:47;;;;;;;36.95;16.77;;;12.30;99.90;;;;;;4231228;28;20040;-83
2022/10/15 03:29:47;;;;;;;36.47;16.77;;;12.30;99.90;;;;;;4231666;28;20489;-83
2022/10/15 03:31:48;;;;;;;38.78;17.02;;;12.30;99.90;;;;;;4247535;27;20121;-83
2022/10/15 03:33:49;;;;;;;35.47;17.00;;;12.30;99.90;;;;;;4230182;28;20484;-84
2022/10/15 03:35:51;;;;;;;35.83;16.40;;;12.30;99.90;;;;;;4231415;28;20039;-83
2022/10/15 03:37:52;;;;;;;37.42;16.92;;;12.30;99.90;;;;;;4231585;28;20043;-84
2022/10/15 03:39:52;;;;;;;36.00;17.08;;;12.30;99.90;;;;;;4213330;28;20047;-83
2022/10/15 03:41:53;;;;;;;36.75;17.85;;;12.30;99.90;;;;;;4222505;28;20401;-83
2022/10/15 03:44:00;;;;;;;35.70;16.38;;;12.30;99.90;;;;;;4214574;28;20100;-83
2022/10/15 03:46:04;;;;;;;31.88;16.17;;;12.30;99.90;;;;;;4213518;28;20059;-83
2022/10/15 03:48:05;;;;;;;36.17;17.02;;;12.30;99.90;;;;;;4214858;28;20040;-83
2022/10/15 03:50:06;;;;;;;33.47;16.90;;;12.30;99.90;;;;;;4222107;28;20392;-83
2022/10/15 03:52:07;;;;;;;32.75;16.52;;;12.30;99.90;;;;;;4231343;28;20062;-83
2022/10/15 03:54:08;;;;;;;37.47;18.38;;;12.30;99.90;;;;;;4231452;28;20091;-83
2022/10/15 03:56:10;;;;;;;40.92;18.10;;;12.30;99.90;;;;;;4231019;28;20078;-83
2022/10/15 03:58:10;;;;;;;38.08;16.58;;;12.30;99.90;;;;;;4231660;28;20484;-83
2022/10/15 04:00:12;;;;;;;39.15;18.08;;;12.30;99.90;;;;;;4231904;28;20070;-83
2022/10/15 04:02:13;;;;;;;33.22;15.48;;;12.30;99.90;;;;;;4231735;28;20039;-83
2022/10/15 04:04:16;;;;;;;34.13;16.48;;;12.30;99.90;;;;;;4231160;28;20070;-83
2022/10/15 04:06:17;;;;;;;34.35;16.88;;;12.30;99.90;;;;;;4231005;28;20047;-84
2022/10/15 04:08:18;;;;;;;33.40;17.25;;;12.30;99.90;;;;;;4230770;28;20035;-83
2022/10/15 04:10:19;;;;;;;37.88;17.58;;;12.30;99.90;;;;;;4230899;28;20085;-83
2022/10/15 04:12:20;;;;;;;35.40;16.83;;;12.30;99.90;;;;;;4231580;28;20047;-83
2022/10/15 04:14:20;;;;;;;34.30;16.33;;;12.30;99.90;;;;;;4230950;28;20043;-83
2022/10/15 04:16:21;;;;;;;38.83;17.45;;;12.30;99.90;;;;;;4231083;28;20064;-83
2022/10/15 04:18:22;;;;;;;45.03;17.90;;;12.30;99.90;;;;;;4230940;28;20598;-83
2022/10/15 04:20:22;;;;;;;35.58;16.75;;;12.30;99.90;;;;;;4231019;28;20401;-83
2022/10/15 04:22:23;;;;;;;36.65;16.88;;;12.30;99.90;;;;;;4231020;28;20035;-83
2022/10/15 04:24:24;;;;;;;39.58;18.85;;;12.30;99.90;;;;;;4231139;28;20071;-83
2022/10/15 04:26:25;;;;;;;42.65;18.00;;;12.40;99.90;;;;;;4231433;28;20036;-83
2022/10/15 04:28:26;;;;;;;38.25;16.45;;;12.30;99.90;;;;;;4230188;28;20043;-83
2022/10/15 04:30:27;;;;;;;36.30;17.70;;;12.30;99.90;;;;;;4230879;28;20093;-83
2022/10/15 04:32:28;;;;;;;47.63;17.15;;;12.30;99.90;;;;;;4231112;28;20509;-83
2022/10/15 04:34:28;;;;;;;41.08;17.30;;;12.30;99.90;;;;;;4231158;28;20043;-83
2022/10/15 04:36:29;;;;;;;35.53;17.35;;;12.30;99.90;;;;;;4230703;28;20048;-83
2022/10/15 04:38:30;;;;;;;35.22;17.08;;;12.30;99.90;;;;;;4229604;28;20126;-83
2022/10/15 04:40:30;;;;;;;38.40;17.27;;;12.30;99.90;;;;;;4231246;28;20512;-83
2022/10/15 04:42:31;;;;;;;37.35;17.23;;;12.30;99.90;;;;;;4234189;28;20036;-83
2022/10/15 04:44:32;;;;;;;42.35;17.75;;;12.30;99.90;;;;;;4234311;28;20040;-83
2022/10/15 04:46:32;;;;;;;39.67;17.65;;;12.30;99.90;;;;;;4233978;28;20100;-83
2022/10/15 04:48:35;;;;;;;37.50;17.17;;;12.30;99.90;;;;;;4234305;28;20126;-83
2022/10/15 04:50:36;;;;;;;42.60;17.58;;;12.30;99.90;;;;;;4233208;28;20182;-83
2022/10/15 04:52:37;;;;;;;46.58;18.33;;;12.30;99.90;;;;;;4233934;28;20096;-84
2022/10/15 04:54:37;;;;;;;40.80;18.05;;;12.20;99.90;;;;;;4233653;28;20073;-84
2022/10/15 04:56:38;;;;;;;37.40;17.58;;;12.20;99.90;;;;;;4233828;28;20043;-84
2022/10/15 04:58:41;;;;;;;44.13;17.58;;;12.20;99.90;;;;;;4236167;28;20039;-83
2022/10/15 05:00:42;;;;;;;46.72;18.10;;;12.20;99.90;;;;;;4233446;28;20473;-83
2022/10/15 05:02:42;;;;;;;43.63;17.88;;;12.20;99.90;;;;;;4234072;28;20110;-85
2022/10/15 05:04:43;;;;;;;43.47;18.75;;;12.20;99.90;;;;;;4234465;28;20047;-83
2022/10/15 05:06:44;;;;;;;41.25;17.02;;;12.20;99.90;;;;;;4233808;28;20043;-84
2022/10/15 05:08:46;;;;;;;45.25;19.98;;;12.20;99.90;;;;;;4232896;28;20039;-84
2022/10/15 05:10:46;;;;;;;39.10;17.05;;;12.20;99.90;;;;;;4234349;27;20043;-84
2022/10/15 05:12:47;;;;;;;37.20;18.58;;;12.10;99.90;;;;;;4231833;28;20165;-84
2022/10/15 05:14:48;;;;;;;43.38;18.40;;;12.10;99.90;;;;;;4233679;27;20047;-84
2022/10/15 05:16:48;;;;;;;41.63;18.15;;;12.10;99.90;;;;;;4233901;27;20386;-83
2022/10/15 05:18:51;;;;;;;44.38;18.20;;;12.10;99.90;;;;;;4234008;28;20039;-83
2022/10/15 05:20:52;;;;;;;43.50;18.45;;;12.10;99.90;;;;;;4233857;28;20032;-83
2022/10/15 05:22:53;;;;;;;41.85;18.73;;;12.10;99.90;;;;;;4233875;28;20579;-83
2022/10/15 05:24:53;;;;;;;43.92;18.98;;;12.10;99.90;;;;;;4233908;28;20042;-83
2022/10/15 05:26:54;;;;;;;43.33;18.73;;;12.10;99.90;;;;;;4233629;28;20500;-83
2022/10/15 05:28:56;;;;;;;40.40;17.17;;;12.10;99.90;;;;;;4233078;28;20534;-83
2022/10/15 05:31:12;;;;;;;39.20;18.17;;;12.10;99.90;;;;;;4233407;28;20035;-84
2022/10/15 05:33:13;;;;;;;45.75;19.45;;;12.10;99.90;;;;;;4233475;28;20051;-83
2022/10/15 05:35:13;;;;;;;41.65;18.80;;;12.00;99.90;;;;;;4233490;28;20051;-84
2022/10/15 05:37:14;;;;;;;41.33;17.10;;;12.10;99.90;;;;;;4233103;28;20100;-83
2022/10/15 05:39:15;;;;;;;40.10;17.75;;;12.10;99.90;;;;;;4231918;28;20047;-84
2022/10/15 05:41:16;;;;;;;39.65;18.92;;;12.00;99.90;;;;;;4228384;28;20741;-84
2022/10/15 05:43:16;;;;;;;47.88;19.52;;;12.10;99.90;;;;;;4216916;28;20048;-85
2022/10/15 05:45:17;;;;;;;44.45;18.92;;;11.20;99.90;;;;;;4216028;28;20119;-84
2022/10/15 05:47:18;;;;;;;40.33;17.58;;;12.00;99.90;;;;;;4216214;28;20103;-84
2022/10/15 05:49:18;;;;;;;42.38;19.17;;;12.00;99.90;;;;;;4214395;28;20488;-84
2022/10/15 05:51:19;;;;;;;41.50;19.27;;;12.00;99.90;;;;;;4216386;28;20040;-83
2022/10/15 05:53:20;;;;;;;52.78;19.48;;;12.00;99.90;;;;;;4219273;28;20040;-84
2022/10/15 05:55:21;;;;;;;43.75;19.17;;;12.00;99.90;;;;;;4223347;28;20071;-84
2022/10/15 05:57:22;;;;;;;47.00;20.40;;;12.00;99.90;;;;;;4231957;28;20104;-84
2022/10/15 05:59:22;;;;;;;43.05;18.58;;;12.00;99.90;;;;;;4224632;28;20130;-84
2022/10/15 06:01:24;;;;;;;45.53;20.35;;;12.00;99.90;;;;;;4216456;28;20127;-84
2022/10/15 06:03:26;;;;;;;49.17;20.20;;;12.00;99.90;;;;;;4216483;28;20419;-85
2022/10/15 06:05:27;;;;;;;51.15;21.48;;;12.00;99.90;;;;;;4214255;28;20052;-84
2022/10/15 06:07:27;;;;;;;44.17;19.77;;;12.00;99.90;;;;;;4216928;28;20412;-84
2022/10/15 06:09:29;;;;;;;47.25;21.60;;;12.10;99.90;;;;;;4213033;28;20044;-85
2022/10/15 06:11:31;;;;;;;49.70;21.27;;;12.10;99.90;;;;;;4232769;28;20105;-83
2022/10/15 06:13:32;;;;;;;48.45;21.23;;;12.00;99.90;;;;;;4223965;28;20483;-84
2022/10/15 06:15:33;;;;;;;51.85;22.05;;;12.10;99.90;;;;;;4224051;28;20044;-84
2022/10/15 06:17:34;;;;;;;46.58;20.95;;;12.10;99.90;;;;;;4216202;28;20040;-84
2022/10/15 06:19:36;;;;;;;52.03;20.95;;;12.10;99.90;;;;;;4205877;28;20139;-84
2022/10/15 06:21:37;;;;;;;45.25;20.23;;;12.10;99.90;;;;;;4232309;28;20054;-84
2022/10/15 06:23:39;;;;;;;52.65;20.65;;;12.10;99.90;;;;;;4232545;28;20485;-84
2022/10/15 06:25:39;;;;;;;56.40;23.25;;;12.10;99.90;;;;;;4232730;28;20036;-84
2022/10/15 06:27:40;;;;;;;55.47;22.00;;;12.10;99.90;;;;;;4232430;28;20524;-85
2022/10/15 06:29:41;;;;;;;53.97;21.92;;;12.10;99.90;;;;;;4232966;28;20075;-84
2022/10/15 06:31:42;;;;;;;53.47;23.45;;;12.20;99.90;;;;;;4224276;28;20048;-84
2022/10/15 06:33:45;;;;;;;50.38;22.13;;;12.20;99.90;;;;;;4215475;28;20126;-83
2022/10/15 06:35:46;;;;;;;51.42;21.98;;;11.40;99.90;;;;;;4215770;28;20052;-83
2022/10/15 06:37:47;;;;;;;56.33;22.98;;;12.20;99.90;;;;;;4214157;28;20040;-83
2022/10/15 06:39:48;;;;;;;59.63;22.52;;;12.20;99.90;;;;;;4215519;28;20122;-83
2022/10/15 06:41:49;;;;;;;48.63;22.65;;;12.20;99.90;;;;;;4222611;28;20050;-83
2022/10/15 06:43:50;;;;;;;54.33;23.30;;;12.20;99.90;;;;;;4232202;28;20071;-83
2022/10/15 06:45:51;;;;;;;53.67;23.33;;;12.30;99.90;;;;;;4232487;28;20043;-85
2022/10/15 06:47:52;;;;;;;60.22;23.90;;;12.20;99.90;;;;;;4231922;28;20035;-83
2022/10/15 06:49:52;;;;;;;55.38;22.17;;;12.20;99.90;;;;;;4232360;28;20088;-83
2022/10/15 06:51:54;;;;;;;50.55;20.92;;;12.30;99.90;;;;;;4231965;28;20048;-84
2022/10/15 06:53:55;;;;;;;49.90;20.52;;;12.30;99.90;;;;;;4230714;28;20090;-84
2022/10/15 06:55:58;;;;;;;53.22;22.02;;;12.30;99.90;;;;;;4232114;28;20051;-84
2022/10/15 06:57:59;;;;;;;51.67;23.33;;;12.30;99.90;;;;;;4230850;28;20532;-84
2022/10/15 07:00:00;;;;;;;51.63;22.38;;;11.40;99.90;;;;;;4230564;28;20043;-84
2022/10/15 07:02:01;;;;;;;59.10;23.05;;;12.30;99.90;;;;;;4230398;28;20046;-84
2022/10/15 07:04:02;;;;;;;57.75;22.35;;;12.50;99.90;;;;;;4231991;28;20101;-84
2022/10/15 07:06:04;;;;;;;49.97;21.30;;;12.30;99.90;;;;;;4232267;28;20131;-85
2022/10/15 07:08:05;;;;;;;52.60;22.15;;;12.30;99.90;;;;;;4231307;28;20162;-86
2022/10/15 07:10:07;;;;;;;49.42;20.80;;;12.30;99.90;;;;;;4231883;28;20044;-86
2022/10/15 07:12:09;;;;;;;53.47;22.90;;;12.40;99.90;;;;;;4231528;28;20052;-86
2022/10/15 07:14:10;;;;;;;61.60;23.40;;;12.30;99.90;;;;;;4231870;28;20083;-82
2022/10/15 07:16:12;;;;;;;55.53;22.30;;;12.40;99.90;;;;;;4231606;28;20039;-83
2022/10/15 07:18:12;;;;;;;51.85;22.38;;;12.40;99.90;;;;;;4232033;28;20055;-87
2022/10/15 07:20:13;;;;;;;55.95;22.73;;;12.40;99.90;;;;;;4232558;28;20039;-86
2022/10/15 07:22:14;;;;;;;54.90;22.48;;;12.40;99.90;;;;;;4214201;28;20044;-85
2022/10/15 07:24:15;;;;;;;51.03;22.40;;;12.40;99.90;;;;;;4233133;28;20039;-86
2022/10/15 07:26:16;;;;;;;54.90;22.40;;;12.40;99.90;;;;;;4233414;28;20057;-85
2022/10/15 07:28:17;;;;;;;54.25;22.27;;;12.40;99.90;;;;;;4229580;28;20112;-84
2022/10/15 07:30:18;;;;;;;49.05;21.70;;;12.50;99.90;;;;;;4216802;28;20052;-85
2022/10/15 07:32:18;;;;;;;51.85;23.13;;;12.50;99.90;;;;;;4213668;28;20044;-85
2022/10/15 07:34:20;;;;;;;52.35;22.55;;;12.50;99.90;;;;;;4214694;28;20040;-83
2022/10/15 07:36:21;;;;;;;65.32;25.85;;;12.50;99.90;;;;;;4230746;28;20040;-84
2022/10/15 07:38:22;;;;;;;54.78;24.17;;;12.50;99.90;;;;;;4231282;28;20374;-85
2022/10/15 07:40:23;;;;;;;50.10;23.13;;;12.30;99.90;;;;;;4232826;28;20527;-83
2022/10/15 07:42:24;;;;;;;60.50;25.23;;;12.50;99.90;;;;;;4217321;28;20052;-83
2022/10/15 07:44:25;;;;;;;57.33;24.00;;;12.60;99.90;;;;;;4214973;28;20055;-85
2022/10/15 07:46:25;;;;;;;52.42;21.10;;;12.60;99.90;;;;;;4213856;28;20073;-84
2022/10/15 07:48:26;;;;;;;53.10;23.85;;;12.60;99.90;;;;;;4231446;28;20050;-83
2022/10/15 07:50:27;;;;;;;51.30;23.00;;;13.10;99.90;;;;;;4231612;28;20054;-84
2022/10/15 07:52:29;;;;;;;56.88;24.50;;;12.60;99.90;;;;;;4231452;28;20047;-85
2022/10/15 07:54:32;;;;;;;50.85;22.90;;;12.60;99.90;;;;;;4233444;28;20047;-84
2022/10/15 07:56:32;;;;;;;54.22;21.15;;;12.70;99.90;;;;;;4233644;28;20052;-84
2022/10/15 07:58:36;;;;;;;53.50;21.95;;;12.70;99.90;;;;;;4233554;28;20040;-85
2022/10/15 08:00:37;;;;;;;51.78;22.55;;;12.90;99.90;;;;;;4231402;28;20108;-84
2022/10/15 08:02:41;;;;;;;52.30;23.73;;;13.30;99.90;;;;;;4233674;28;20040;-84
2022/10/15 08:04:43;;;;;;;48.78;21.67;;;13.10;99.90;;;;;;4231102;28;20108;-84
2022/10/15 08:06:44;;;;;;;52.58;22.10;;;13.30;99.90;;;;;;4231507;28;20082;-84
2022/10/15 08:08:44;;;;;;;46.38;20.67;;;13.50;99.90;;;;;;4232211;28;20048;-84
2022/10/15 08:10:46;;;;;;;47.10;20.20;;;13.90;99.90;;;;;;4231950;28;20043;-84
2022/10/15 08:12:47;;;;;;;42.85;19.48;;;14.20;99.90;;;;;;4231394;28;20508;-85
2022/10/15 08:14:47;;;;;;;41.40;18.85;;;14.20;99.90;;;;;;4231290;28;20043;-83
2022/10/15 08:16:48;;;;;;;41.63;19.73;;;14.20;99.90;;;;;;4234795;28;20072;-84
2022/10/15 08:18:49;;;;;;;45.60;20.25;;;14.10;99.90;;;;;;4235172;28;20420;-83
2022/10/15 08:20:51;;;;;;;46.72;20.02;;;13.90;99.90;;;;;;4235293;28;20118;-84
2022/10/15 08:22:51;;;;;;;41.35;20.05;;;13.80;99.90;;;;;;4216447;28;20405;-84
2022/10/15 08:24:52;;;;;;;42.08;19.52;;;13.70;99.90;;;;;;4217612;28;20040;-84
2022/10/15 08:26:53;;;;;;;38.70;19.58;;;13.70;99.90;;;;;;4234192;28;20047;-83
2022/10/15 08:28:53;;;;;;;43.92;19.75;;;13.70;99.90;;;;;;4234546;28;20050;-84
2022/10/15 08:30:56;;;;;;;41.15;20.58;;;13.70;99.90;;;;;;4238509;27;20051;-83
2022/10/15 08:32:57;;;;;;;48.38;22.10;;;13.60;99.90;;;;;;4236085;27;20581;-83
2022/10/15 08:34:58;;;;;;;45.38;20.25;;;13.60;99.90;;;;;;4235043;28;20032;-84
2022/10/15 08:36:59;;;;;;;44.90;19.67;;;13.60;99.90;;;;;;4235944;28;20089;-84
2022/10/15 08:39:00;;;;;;;45.17;20.00;;;13.60;99.90;;;;;;4232989;28;20146;-84
2022/10/15 08:41:04;;;;;;;48.20;21.77;;;13.60;99.90;;;;;;4232423;28;20051;-84
2022/10/15 08:43:06;;;;;;;43.10;20.05;;;13.60;99.90;;;;;;4218006;28;20543;-85
2022/10/15 08:45:16;;;;;;;44.83;20.60;;;13.90;99.90;;;;;;4218263;28;20072;-86
2022/10/15 08:47:37;;;;;;;46.45;20.45;;;13.90;99.90;;;;;;4218514;28;20047;-87
2022/10/15 08:49:50;;;;;;;35.83;16.67;;;14.10;99.90;;;;;;4199963;28;20583;-87
2022/10/15 08:52:01;;;;;;;36.03;18.40;;;14.20;99.90;;;;;;4217481;28;20052;-86
2022/10/15 08:54:03;;;;;;;40.15;18.27;;;14.20;99.90;;;;;;4217929;28;20202;-87
2022/10/15 08:56:25;;;;;;;44.67;19.23;;;14.10;99.90;;;;;;4218208;28;20044;-86
2022/10/15 08:58:45;;;;;;;34.80;18.05;;;14.10;99.90;;;;;;4236039;28;20056;-87
2022/10/15 09:00:57;;;;;;;35.22;18.20;;;14.10;99.90;;;;;;4202224;28;20912;-87
2022/10/15 09:03:35;;;;;;;37.97;17.92;;;14.10;99.90;;;;;;4219989;28;20052;-88
2022/10/15 09:05:59;;;;;;;36.45;18.58;;;14.20;99.90;;;;;;4201968;28;20501;-87
2022/10/15 09:08:15;;;;;;;35.03;17.88;;;14.30;99.90;;;;;;4201866;28;20044;-88
2022/10/15 09:10:29;;;;;;;44.25;19.10;;;14.30;99.90;;;;;;4205504;28;20056;-86
2022/10/15 09:12:42;;;;;;;41.33;18.67;;;14.30;99.90;;;;;;4222238;28;20054;-86
2022/10/15 09:14:45;;;;;;;41.95;19.38;;;14.40;99.90;;;;;;4201492;28;20060;-87
2022/10/15 09:16:48;;;;;;;43.25;19.60;;;14.30;99.90;;;;;;4213857;28;20121;-87
2022/10/15 09:18:51;;;;;;;41.38;20.38;;;14.20;99.90;;;;;;4235240;28;20055;-88
2022/10/15 09:20:53;;;;;;;41.05;21.58;;;14.20;99.90;;;;;;4234084;28;20093;-87
2022/10/15 09:22:55;;;;;;;38.42;19.85;;;14.10;99.90;;;;;;4215389;28;20041;-87
2022/10/15 09:24:56;;;;;;;42.33;21.27;;;14.10;99.90;;;;;;4250659;28;20055;-86
2022/10/15 09:27:11;;;;;;;39.17;18.98;;;14.10;99.90;;;;;;4221325;28;20099;-87
2022/10/15 09:29:24;;;;;;;36.92;17.92;;;14.10;99.90;;;;;;4236424;28;20082;-87
2022/10/15 09:31:42;;;;;;;39.15;18.55;;;14.10;99.90;;;;;;4220805;28;20052;-87
2022/10/15 09:33:56;;;;;;;33.93;17.17;;;14.20;99.90;;;;;;4220329;28;20079;-87
2022/10/15 09:36:30;;;;;;;31.92;16.40;;;14.20;99.90;;;;;;4219784;28;20048;-87
2022/10/15 09:38:41;;;;;;;36.53;15.25;;;14.20;99.90;;;;;;4203005;28;20151;-87
2022/10/15 09:40:50;;;;;;;33.78;16.55;;;14.10;99.90;;;;;;4217441;28;20497;-87
2022/10/15 09:42:52;;;;;;;34.30;17.25;;;14.10;99.90;;;;;;4218495;28;20048;-87
2022/10/15 09:44:56;;;;;;;34.22;16.67;;;14.10;99.90;;;;;;4200052;28;20040;-87
2022/10/15 09:46:57;;;;;;;33.40;16.25;;;14.10;99.90;;;;;;4218254;28;20044;-86
2022/10/15 09:49:07;;;;;;;39.95;16.83;;;14.10;99.90;;;;;;4218846;28;20062;-87
2022/10/15 09:51:30;;;;;;;30.77;14.60;;;14.10;99.90;;;;;;4217521;28;20085;-86
2022/10/15 09:53:36;;;;;;;32.97;14.80;;;14.00;99.90;;;;;;4233104;28;20047;-87
2022/10/15 09:56:02;;;;;;;29.23;14.73;;;14.00;99.90;;;;;;4232742;28;20052;-87
2022/10/15 09:58:17;;;;;;;30.88;14.32;;;13.90;99.90;;;;;;4217357;28;20147;-86
2022/10/15 10:00:18;;;;;;;32.55;15.90;;;13.80;99.90;;;;;;4227542;28;20505;-83
2022/10/15 10:02:22;;;;;;;32.28;13.07;;;13.70;99.90;;;;;;4231876;28;20111;-83
2022/10/15 10:04:28;;;;;;;30.30;14.18;;;13.70;99.90;;;;;;4222468;28;20173;-83
2022/10/15 10:06:29;;;;;;;32.58;14.77;;;13.60;99.90;;;;;;4216550;28;20047;-83
2022/10/15 10:08:53;;;;;;;32.38;15.35;;;13.30;99.90;;;;;;4217562;28;20062;-83
2022/10/15 10:10:59;;;;;;;35.05;16.00;;;13.50;99.90;;;;;;4217511;28;20055;-83
2022/10/15 10:13:00;;;;;;;36.47;15.52;;;13.50;99.90;;;;;;4198991;28;20048;-83
2022/10/15 10:15:25;;;;;;;36.90;16.58;;;13.50;99.90;;;;;;4215946;28;20446;-84
2022/10/15 10:17:27;;;;;;;35.03;15.13;;;13.50;99.90;;;;;;4215810;28;20060;-83
2022/10/15 10:19:28;;;;;;;37.67;16.92;;;13.50;99.90;;;;;;4216985;28;20097;-83
2022/10/15 10:21:32;;;;;;;33.55;14.85;;;13.50;99.90;;;;;;4233828;28;20079;-83
2022/10/15 10:23:38;;;;;;;33.00;14.65;;;13.50;99.90;;;;;;4232105;28;20051;-83
2022/10/15 10:25:43;;;;;;;36.53;16.35;;;13.50;99.90;;;;;;4233603;28;20433;-83
2022/10/15 10:27:45;;;;;;;34.30;16.10;;;13.40;99.90;;;;;;4232990;28;20397;-84
2022/10/15 10:30:00;;;;;;;33.75;14.75;;;13.40;99.90;;;;;;4231477;28;20051;-83
2022/10/15 10:32:18;;;;;;;34.00;14.75;;;13.50;99.90;;;;;;4233187;28;20051;-83